sensor_id;sensor_type;location;lat;lon;timestamp;P1;durP1;ratioP1;P2;durP2;ratioP2
23388;SDS011;11867;51.198;11.966;2023-11-18T00:00:32;4.65;;;3.35;;
23388;SDS011;11867;51.198;11.966;2023-11-18T00:05:55;2.60;;;1.98;;
23388;SDS011;11867;51.198;11.966;2023-11-18T00:11:21;5.50;;;3.13;;
23388;SDS011;11867;51.198;11.966;2023-11-18T00:16:47;6.07;;;3.58;;
23388;SDS011;11867;51.198;11.966;2023-11-18T00:22:10;4.40;;;2.78;;
23388;SDS011;11867;51.198;11.966;2023-11-18T00:27:33;4.72;;;3.80;;
23388;SDS011;11867;51.198;11.966;2023-11-18T00:32:59;4.60;;;3.08;;
23388;SDS011;11867;51.198;11.966;2023-11-18T00:38:23;4.18;;;3.13;;
23388;SDS011;11867;51.198;11.966;2023-11-18T00:43:46;8.35;;;4.07;;
23388;SDS011;11867;51.198;11.966;2023-11-18T00:49:10;7.10;;;4.15;;
23388;SDS011;11867;51.198;11.966;2023-11-18T00:54:34;5.25;;;3.42;;
23388;SDS011;11867;51.198;11.966;2023-11-18T00:59:57;6.10;;;4.13;;
23388;SDS011;11867;51.198;11.966;2023-11-18T01:05:22;6.60;;;4.13;;
23388;SDS011;11867;51.198;11.966;2023-11-18T01:10:45;5.32;;;2.95;;
23388;SDS011;11867;51.198;11.966;2023-11-18T01:16:08;7.05;;;4.55;;
23388;SDS011;11867;51.198;11.966;2023-11-18T01:21:34;5.22;;;4.10;;
23388;SDS011;11867;51.198;11.966;2023-11-18T01:26:57;6.60;;;4.22;;
23388;SDS011;11867;51.198;11.966;2023-11-18T01:32:20;8.23;;;5.13;;
23388;SDS011;11867;51.198;11.966;2023-11-18T01:37:45;6.82;;;4.82;;
23388;SDS011;11867;51.198;11.966;2023-11-18T01:43:09;7.80;;;5.28;;
23388;SDS011;11867;51.198;11.966;2023-11-18T01:48:36;8.65;;;5.57;;
23388;SDS011;11867;51.198;11.966;2023-11-18T01:54:01;5.80;;;4.22;;
23388;SDS011;11867;51.198;11.966;2023-11-18T01:59:27;9.38;;;5.57;;
23388;SDS011;11867;51.198;11.966;2023-11-18T02:04:51;7.93;;;5.38;;
23388;SDS011;11867;51.198;11.966;2023-11-18T02:10:16;8.75;;;6.35;;
23388;SDS011;11867;51.198;11.966;2023-11-18T02:15:39;7.13;;;4.68;;
23388;SDS011;11867;51.198;11.966;2023-11-18T02:21:04;8.43;;;5.43;;
23388;SDS011;11867;51.198;11.966;2023-11-18T02:26:31;8.85;;;6.30;;
23388;SDS011;11867;51.198;11.966;2023-11-18T02:31:56;9.40;;;5.63;;
23388;SDS011;11867;51.198;11.966;2023-11-18T02:37:23;13.32;;;7.60;;
23388;SDS011;11867;51.198;11.966;2023-11-18T02:42:50;9.77;;;7.15;;
23388;SDS011;11867;51.198;11.966;2023-11-18T02:48:16;11.57;;;6.82;;
23388;SDS011;11867;51.198;11.966;2023-11-18T02:53:40;10.38;;;6.97;;
23388;SDS011;11867;51.198;11.966;2023-11-18T02:59:08;10.45;;;7.20;;
23388;SDS011;11867;51.198;11.966;2023-11-18T03:04:31;12.32;;;9.10;;
23388;SDS011;11867;51.198;11.966;2023-11-18T03:09:55;13.43;;;8.35;;
23388;SDS011;11867;51.198;11.966;2023-11-18T03:15:23;11.63;;;7.97;;
23388;SDS011;11867;51.198;11.966;2023-11-18T03:20:47;15.55;;;8.43;;
23388;SDS011;11867;51.198;11.966;2023-11-18T03:26:11;10.93;;;7.82;;
23388;SDS011;11867;51.198;11.966;2023-11-18T03:31:35;11.43;;;8.48;;
23388;SDS011;11867;51.198;11.966;2023-11-18T03:36:58;11.15;;;7.35;;
23388;SDS011;11867;51.198;11.966;2023-11-18T03:42:21;15.45;;;8.95;;
23388;SDS011;11867;51.198;11.966;2023-11-18T03:47:46;14.05;;;9.48;;
23388;SDS011;11867;51.198;11.966;2023-11-18T03:53:11;11.93;;;8.65;;
23388;SDS011;11867;51.198;11.966;2023-11-18T03:58:34;11.02;;;8.38;;
23388;SDS011;11867;51.198;11.966;2023-11-18T04:03:59;11.63;;;8.70;;
23388;SDS011;11867;51.198;11.966;2023-11-18T04:09:23;13.70;;;7.60;;
23388;SDS011;11867;51.198;11.966;2023-11-18T04:14:47;14.20;;;8.43;;
23388;SDS011;11867;51.198;11.966;2023-11-18T04:20:11;13.88;;;8.82;;
23388;SDS011;11867;51.198;11.966;2023-11-18T04:30:57;13.43;;;8.63;;
23388;SDS011;11867;51.198;11.966;2023-11-18T04:36:22;10.70;;;8.60;;
23388;SDS011;11867;51.198;11.966;2023-11-18T04:41:46;10.07;;;6.22;;
23388;SDS011;11867;51.198;11.966;2023-11-18T04:47:09;12.52;;;7.88;;
23388;SDS011;11867;51.198;11.966;2023-11-18T04:52:34;11.23;;;7.40;;
23388;SDS011;11867;51.198;11.966;2023-11-18T04:57:58;13.10;;;7.78;;
23388;SDS011;11867;51.198;11.966;2023-11-18T05:03:21;11.68;;;7.38;;
23388;SDS011;11867;51.198;11.966;2023-11-18T05:08:47;13.45;;;7.85;;
23388;SDS011;11867;51.198;11.966;2023-11-18T05:14:11;12.10;;;7.63;;
23388;SDS011;11867;51.198;11.966;2023-11-18T05:19:34;10.10;;;7.07;;
23388;SDS011;11867;51.198;11.966;2023-11-18T05:24:58;14.85;;;8.52;;
23388;SDS011;11867;51.198;11.966;2023-11-18T05:35:45;11.43;;;7.95;;
23388;SDS011;11867;51.198;11.966;2023-11-18T05:41:12;11.25;;;7.65;;
23388;SDS011;11867;51.198;11.966;2023-11-18T05:46:38;11.25;;;6.55;;
23388;SDS011;11867;51.198;11.966;2023-11-18T05:52:01;11.45;;;6.88;;
23388;SDS011;11867;51.198;11.966;2023-11-18T05:57:26;8.25;;;6.40;;
23388;SDS011;11867;51.198;11.966;2023-11-18T06:02:49;8.80;;;5.13;;
23388;SDS011;11867;51.198;11.966;2023-11-18T06:08:13;8.87;;;6.70;;
23388;SDS011;11867;51.198;11.966;2023-11-18T06:13:37;7.65;;;5.80;;
23388;SDS011;11867;51.198;11.966;2023-11-18T06:19:03;10.23;;;6.35;;
23388;SDS011;11867;51.198;11.966;2023-11-18T06:24:27;9.38;;;6.35;;
23388;SDS011;11867;51.198;11.966;2023-11-18T06:29:54;10.43;;;6.15;;
23388;SDS011;11867;51.198;11.966;2023-11-18T06:35:17;8.27;;;6.15;;
23388;SDS011;11867;51.198;11.966;2023-11-18T06:40:41;11.27;;;6.67;;
23388;SDS011;11867;51.198;11.966;2023-11-18T06:46:05;10.57;;;7.32;;
23388;SDS011;11867;51.198;11.966;2023-11-18T06:51:34;10.02;;;7.28;;
23388;SDS011;11867;51.198;11.966;2023-11-18T06:57:00;9.57;;;7.32;;
23388;SDS011;11867;51.198;11.966;2023-11-18T07:02:24;13.75;;;7.82;;
23388;SDS011;11867;51.198;11.966;2023-11-18T07:07:47;8.27;;;5.78;;
23388;SDS011;11867;51.198;11.966;2023-11-18T07:13:10;13.38;;;7.20;;
23388;SDS011;11867;51.198;11.966;2023-11-18T07:18:35;11.90;;;8.23;;
23388;SDS011;11867;51.198;11.966;2023-11-18T07:23:58;11.00;;;5.78;;
23388;SDS011;11867;51.198;11.966;2023-11-18T07:29:21;12.05;;;8.25;;
23388;SDS011;11867;51.198;11.966;2023-11-18T07:34:46;12.20;;;7.85;;
23388;SDS011;11867;51.198;11.966;2023-11-18T07:40:10;10.50;;;6.95;;
23388;SDS011;11867;51.198;11.966;2023-11-18T07:45:34;9.13;;;6.65;;
23388;SDS011;11867;51.198;11.966;2023-11-18T07:51:00;14.32;;;8.77;;
23388;SDS011;11867;51.198;11.966;2023-11-18T07:56:23;9.20;;;6.47;;
23388;SDS011;11867;51.198;11.966;2023-11-18T08:01:48;10.02;;;8.00;;
23388;SDS011;11867;51.198;11.966;2023-11-18T08:07:13;13.27;;;8.55;;
23388;SDS011;11867;51.198;11.966;2023-11-18T08:12:36;9.88;;;6.40;;
23388;SDS011;11867;51.198;11.966;2023-11-18T08:17:59;12.20;;;8.27;;
23388;SDS011;11867;51.198;11.966;2023-11-18T08:23:24;15.05;;;8.63;;
23388;SDS011;11867;51.198;11.966;2023-11-18T08:28:47;8.95;;;6.53;;
23388;SDS011;11867;51.198;11.966;2023-11-18T08:34:10;15.93;;;9.68;;
23388;SDS011;11867;51.198;11.966;2023-11-18T08:39:34;16.90;;;8.75;;
23388;SDS011;11867;51.198;11.966;2023-11-18T08:44:57;13.38;;;9.38;;
23388;SDS011;11867;51.198;11.966;2023-11-18T08:50:25;11.80;;;8.55;;
23388;SDS011;11867;51.198;11.966;2023-11-18T08:55:51;16.70;;;9.45;;
23388;SDS011;11867;51.198;11.966;2023-11-18T09:01:16;14.20;;;9.60;;
23388;SDS011;11867;51.198;11.966;2023-11-18T09:06:40;12.15;;;7.47;;
23388;SDS011;11867;51.198;11.966;2023-11-18T09:12:05;15.35;;;9.85;;
23388;SDS011;11867;51.198;11.966;2023-11-18T09:17:30;16.52;;;9.85;;
23388;SDS011;11867;51.198;11.966;2023-11-18T09:22:53;17.10;;;10.90;;
23388;SDS011;11867;51.198;11.966;2023-11-18T09:28:19;11.88;;;8.38;;
23388;SDS011;11867;51.198;11.966;2023-11-18T09:33:45;15.23;;;11.05;;
23388;SDS011;11867;51.198;11.966;2023-11-18T09:39:14;17.55;;;10.32;;
23388;SDS011;11867;51.198;11.966;2023-11-18T09:44:52;14.77;;;10.70;;
23388;SDS011;11867;51.198;11.966;2023-11-18T09:50:17;15.32;;;9.50;;
23388;SDS011;11867;51.198;11.966;2023-11-18T09:55:42;9.70;;;7.47;;
23388;SDS011;11867;51.198;11.966;2023-11-18T10:01:18;16.15;;;9.18;;
23388;SDS011;11867;51.198;11.966;2023-11-18T10:06:43;12.40;;;8.98;;
23388;SDS011;11867;51.198;11.966;2023-11-18T10:12:08;9.80;;;6.80;;
23388;SDS011;11867;51.198;11.966;2023-11-18T10:17:35;11.95;;;8.15;;
23388;SDS011;11867;51.198;11.966;2023-11-18T10:23:06;13.52;;;9.13;;
23388;SDS011;11867;51.198;11.966;2023-11-18T10:28:32;12.10;;;8.70;;
23388;SDS011;11867;51.198;11.966;2023-11-18T10:33:59;10.95;;;9.07;;
23388;SDS011;11867;51.198;11.966;2023-11-18T10:39:27;11.68;;;8.70;;
23388;SDS011;11867;51.198;11.966;2023-11-18T10:44:56;11.88;;;8.35;;
23388;SDS011;11867;51.198;11.966;2023-11-18T10:50:21;12.95;;;8.23;;
23388;SDS011;11867;51.198;11.966;2023-11-18T11:01:07;12.45;;;8.95;;
23388;SDS011;11867;51.198;11.966;2023-11-18T11:06:34;11.55;;;7.95;;
23388;SDS011;11867;51.198;11.966;2023-11-18T11:11:59;11.80;;;7.82;;
23388;SDS011;11867;51.198;11.966;2023-11-18T11:17:27;10.63;;;7.05;;
23388;SDS011;11867;51.198;11.966;2023-11-18T11:23:00;8.90;;;7.57;;
23388;SDS011;11867;51.198;11.966;2023-11-18T11:28:42;8.73;;;7.80;;
23388;SDS011;11867;51.198;11.966;2023-11-18T11:34:13;8.27;;;7.00;;
23388;SDS011;11867;51.198;11.966;2023-11-18T11:39:42;8.43;;;7.55;;
23388;SDS011;11867;51.198;11.966;2023-11-18T11:45:09;9.00;;;7.45;;
23388;SDS011;11867;51.198;11.966;2023-11-18T11:50:44;9.55;;;7.40;;
23388;SDS011;11867;51.198;11.966;2023-11-18T11:56:20;10.82;;;6.95;;
23388;SDS011;11867;51.198;11.966;2023-11-18T12:01:46;9.70;;;7.10;;
23388;SDS011;11867;51.198;11.966;2023-11-18T12:07:14;8.50;;;6.68;;
23388;SDS011;11867;51.198;11.966;2023-11-18T12:12:43;7.38;;;6.40;;
23388;SDS011;11867;51.198;11.966;2023-11-18T12:18:09;7.85;;;6.00;;
23388;SDS011;11867;51.198;11.966;2023-11-18T12:23:35;9.05;;;6.60;;
23388;SDS011;11867;51.198;11.966;2023-11-18T12:28:59;7.28;;;6.00;;
23388;SDS011;11867;51.198;11.966;2023-11-18T12:40:35;8.68;;;6.30;;
23388;SDS011;11867;51.198;11.966;2023-11-18T12:46:27;6.20;;;5.20;;
23388;SDS011;11867;51.198;11.966;2023-11-18T12:52:11;8.07;;;5.63;;
23388;SDS011;11867;51.198;11.966;2023-11-18T12:57:36;9.68;;;6.50;;
23388;SDS011;11867;51.198;11.966;2023-11-18T13:03:01;8.50;;;7.10;;
23388;SDS011;11867;51.198;11.966;2023-11-18T13:08:25;8.27;;;5.40;;
23388;SDS011;11867;51.198;11.966;2023-11-18T13:13:48;7.03;;;5.07;;
23388;SDS011;11867;51.198;11.966;2023-11-18T13:19:24;6.53;;;4.65;;
23388;SDS011;11867;51.198;11.966;2023-11-18T13:24:47;4.72;;;3.33;;
23388;SDS011;11867;51.198;11.966;2023-11-18T13:30:12;2.97;;;2.77;;
23388;SDS011;11867;51.198;11.966;2023-11-18T13:35:37;6.00;;;2.77;;
23388;SDS011;11867;51.198;11.966;2023-11-18T13:41:00;3.10;;;2.15;;
23388;SDS011;11867;51.198;11.966;2023-11-18T13:46:25;3.75;;;2.58;;
23388;SDS011;11867;51.198;11.966;2023-11-18T13:51:50;4.40;;;2.80;;
23388;SDS011;11867;51.198;11.966;2023-11-18T13:57:13;2.70;;;2.03;;
23388;SDS011;11867;51.198;11.966;2023-11-18T14:02:37;4.30;;;2.60;;
23388;SDS011;11867;51.198;11.966;2023-11-18T14:08:01;3.17;;;2.20;;
23388;SDS011;11867;51.198;11.966;2023-11-18T14:13:32;3.90;;;2.25;;
23388;SDS011;11867;51.198;11.966;2023-11-18T14:18:58;5.63;;;3.88;;
23388;SDS011;11867;51.198;11.966;2023-11-18T14:24:23;7.88;;;3.50;;
23388;SDS011;11867;51.198;11.966;2023-11-18T14:29:49;4.03;;;2.60;;
23388;SDS011;11867;51.198;11.966;2023-11-18T14:35:12;5.20;;;2.72;;
23388;SDS011;11867;51.198;11.966;2023-11-18T14:40:40;5.65;;;4.13;;
23388;SDS011;11867;51.198;11.966;2023-11-18T14:46:03;7.07;;;4.63;;
23388;SDS011;11867;51.198;11.966;2023-11-18T14:51:27;6.88;;;5.00;;
23388;SDS011;11867;51.198;11.966;2023-11-18T14:56:51;11.00;;;7.07;;
23388;SDS011;11867;51.198;11.966;2023-11-18T15:02:14;6.85;;;4.47;;
23388;SDS011;11867;51.198;11.966;2023-11-18T15:07:38;7.40;;;5.22;;
23388;SDS011;11867;51.198;11.966;2023-11-18T15:13:03;9.45;;;6.18;;
23388;SDS011;11867;51.198;11.966;2023-11-18T15:18:26;6.07;;;4.07;;
23388;SDS011;11867;51.198;11.966;2023-11-18T15:23:49;7.25;;;4.68;;
23388;SDS011;11867;51.198;11.966;2023-11-18T15:29:14;6.78;;;5.50;;
23388;SDS011;11867;51.198;11.966;2023-11-18T15:34:37;8.18;;;5.53;;
23388;SDS011;11867;51.198;11.966;2023-11-18T15:40:01;10.77;;;6.10;;
23388;SDS011;11867;51.198;11.966;2023-11-18T15:45:32;11.48;;;7.05;;
23388;SDS011;11867;51.198;11.966;2023-11-18T15:50:56;6.70;;;4.70;;
23388;SDS011;11867;51.198;11.966;2023-11-18T15:56:21;7.40;;;5.05;;
23388;SDS011;11867;51.198;11.966;2023-11-18T16:01:47;6.15;;;3.95;;
23388;SDS011;11867;51.198;11.966;2023-11-18T16:07:13;5.18;;;2.92;;
23388;SDS011;11867;51.198;11.966;2023-11-18T16:12:36;4.35;;;3.70;;
23388;SDS011;11867;51.198;11.966;2023-11-18T16:18:00;6.93;;;5.10;;
23388;SDS011;11867;51.198;11.966;2023-11-18T16:23:26;6.50;;;5.32;;
23388;SDS011;11867;51.198;11.966;2023-11-18T16:28:51;5.47;;;4.47;;
23388;SDS011;11867;51.198;11.966;2023-11-18T16:34:16;7.53;;;3.35;;
23388;SDS011;11867;51.198;11.966;2023-11-18T16:39:39;3.55;;;2.67;;
23388;SDS011;11867;51.198;11.966;2023-11-18T16:45:02;4.47;;;4.03;;
23388;SDS011;11867;51.198;11.966;2023-11-18T16:50:27;6.72;;;4.88;;
23388;SDS011;11867;51.198;11.966;2023-11-18T16:55:51;9.75;;;4.95;;
23388;SDS011;11867;51.198;11.966;2023-11-18T17:01:14;7.10;;;5.45;;
23388;SDS011;11867;51.198;11.966;2023-11-18T17:06:39;5.73;;;4.73;;
23388;SDS011;11867;51.198;11.966;2023-11-18T17:17:27;12.00;;;6.45;;
23388;SDS011;11867;51.198;11.966;2023-11-18T17:22:51;9.38;;;7.20;;
23388;SDS011;11867;51.198;11.966;2023-11-18T17:28:16;14.65;;;9.32;;
23388;SDS011;11867;51.198;11.966;2023-11-18T17:33:39;15.82;;;10.48;;
23388;SDS011;11867;51.198;11.966;2023-11-18T17:39:04;13.00;;;7.85;;
23388;SDS011;11867;51.198;11.966;2023-11-18T17:44:28;11.95;;;7.68;;
23388;SDS011;11867;51.198;11.966;2023-11-18T17:49:51;9.85;;;6.45;;
23388;SDS011;11867;51.198;11.966;2023-11-18T17:55:16;8.32;;;7.05;;
23388;SDS011;11867;51.198;11.966;2023-11-18T18:00:40;10.30;;;7.00;;
23388;SDS011;11867;51.198;11.966;2023-11-18T18:06:03;9.63;;;7.78;;
23388;SDS011;11867;51.198;11.966;2023-11-18T18:11:28;8.13;;;6.93;;
23388;SDS011;11867;51.198;11.966;2023-11-18T18:16:51;7.60;;;6.45;;
23388;SDS011;11867;51.198;11.966;2023-11-18T18:22:15;8.93;;;7.25;;
23388;SDS011;11867;51.198;11.966;2023-11-18T18:27:40;10.88;;;7.32;;
23388;SDS011;11867;51.198;11.966;2023-11-18T18:38:27;9.73;;;7.28;;
23388;SDS011;11867;51.198;11.966;2023-11-18T18:43:51;8.63;;;7.25;;
23388;SDS011;11867;51.198;11.966;2023-11-18T18:49:14;8.20;;;6.50;;
23388;SDS011;11867;51.198;11.966;2023-11-18T18:54:39;8.73;;;6.20;;
23388;SDS011;11867;51.198;11.966;2023-11-18T19:00:04;9.55;;;7.82;;
23388;SDS011;11867;51.198;11.966;2023-11-18T19:05:29;11.10;;;8.98;;
23388;SDS011;11867;51.198;11.966;2023-11-18T19:10:52;10.18;;;7.78;;
23388;SDS011;11867;51.198;11.966;2023-11-18T19:16:17;11.48;;;8.73;;
23388;SDS011;11867;51.198;11.966;2023-11-18T19:21:40;8.30;;;5.95;;
23388;SDS011;11867;51.198;11.966;2023-11-18T19:27:03;10.30;;;7.93;;
23388;SDS011;11867;51.198;11.966;2023-11-18T19:32:32;10.48;;;8.18;;
23388;SDS011;11867;51.198;11.966;2023-11-18T19:37:55;7.47;;;6.55;;
23388;SDS011;11867;51.198;11.966;2023-11-18T19:43:18;11.55;;;8.70;;
23388;SDS011;11867;51.198;11.966;2023-11-18T19:57:15;11.50;;;9.02;;
23388;SDS011;11867;51.198;11.966;2023-11-18T20:02:38;8.88;;;6.43;;
23388;SDS011;11867;51.198;11.966;2023-11-18T20:08:03;8.77;;;6.43;;
23388;SDS011;11867;51.198;11.966;2023-11-18T20:13:28;7.95;;;5.85;;
23388;SDS011;11867;51.198;11.966;2023-11-18T20:18:52;8.75;;;7.85;;
23388;SDS011;11867;51.198;11.966;2023-11-18T20:24:15;12.82;;;7.00;;
23388;SDS011;11867;51.198;11.966;2023-11-18T20:29:40;8.35;;;6.78;;
23388;SDS011;11867;51.198;11.966;2023-11-18T20:35:04;9.13;;;6.60;;
23388;SDS011;11867;51.198;11.966;2023-11-18T20:40:27;9.43;;;6.70;;
23388;SDS011;11867;51.198;11.966;2023-11-18T20:45:53;7.40;;;5.15;;
23388;SDS011;11867;51.198;11.966;2023-11-18T20:51:16;9.13;;;6.82;;
23388;SDS011;11867;51.198;11.966;2023-11-18T20:56:39;8.55;;;7.43;;
23388;SDS011;11867;51.198;11.966;2023-11-18T21:02:05;10.93;;;8.07;;
23388;SDS011;11867;51.198;11.966;2023-11-18T21:07:31;10.15;;;7.10;;
23388;SDS011;11867;51.198;11.966;2023-11-18T21:12:54;10.63;;;7.72;;
23388;SDS011;11867;51.198;11.966;2023-11-18T21:18:18;10.75;;;7.15;;
23388;SDS011;11867;51.198;11.966;2023-11-18T21:23:41;8.10;;;5.93;;
23388;SDS011;11867;51.198;11.966;2023-11-18T21:29:08;9.70;;;6.72;;
23388;SDS011;11867;51.198;11.966;2023-11-18T21:34:33;7.82;;;6.50;;
23388;SDS011;11867;51.198;11.966;2023-11-18T21:39:56;5.90;;;4.63;;
23388;SDS011;11867;51.198;11.966;2023-11-18T21:45:20;6.88;;;5.75;;
23388;SDS011;11867;51.198;11.966;2023-11-18T21:50:46;8.75;;;6.63;;
23388;SDS011;11867;51.198;11.966;2023-11-18T21:56:11;8.70;;;6.72;;
23388;SDS011;11867;51.198;11.966;2023-11-18T22:01:38;7.95;;;6.18;;
23388;SDS011;11867;51.198;11.966;2023-11-18T22:07:02;6.68;;;5.72;;
23388;SDS011;11867;51.198;11.966;2023-11-18T22:12:27;6.72;;;4.78;;
23388;SDS011;11867;51.198;11.966;2023-11-18T22:17:52;5.97;;;4.10;;
23388;SDS011;11867;51.198;11.966;2023-11-18T22:23:16;6.22;;;4.13;;
23388;SDS011;11867;51.198;11.966;2023-11-18T22:28:39;4.40;;;2.95;;
23388;SDS011;11867;51.198;11.966;2023-11-18T22:34:02;3.70;;;3.40;;
23388;SDS011;11867;51.198;11.966;2023-11-18T22:39:28;2.63;;;2.42;;
23388;SDS011;11867;51.198;11.966;2023-11-18T22:44:59;3.22;;;2.50;;
23388;SDS011;11867;51.198;11.966;2023-11-18T22:50:22;2.75;;;2.30;;
23388;SDS011;11867;51.198;11.966;2023-11-18T22:55:47;3.38;;;2.20;;
23388;SDS011;11867;51.198;11.966;2023-11-18T23:01:12;1.88;;;1.70;;
23388;SDS011;11867;51.198;11.966;2023-11-18T23:06:41;2.03;;;1.73;;
23388;SDS011;11867;51.198;11.966;2023-11-18T23:12:06;1.55;;;1.45;;
23388;SDS011;11867;51.198;11.966;2023-11-18T23:22:53;1.40;;;1.30;;
23388;SDS011;11867;51.198;11.966;2023-11-18T23:28:17;1.20;;;1.20;;
23388;SDS011;11867;51.198;11.966;2023-11-18T23:33:40;1.42;;;1.30;;
23388;SDS011;11867;51.198;11.966;2023-11-18T23:39:04;1.88;;;1.30;;
23388;SDS011;11867;51.198;11.966;2023-11-18T23:44:29;1.23;;;1.13;;
23388;SDS011;11867;51.198;11.966;2023-11-18T23:49:53;1.40;;;1.30;;
23388;SDS011;11867;51.198;11.966;2023-11-18T23:55:18;2.17;;;1.98;;
